createdAt,value
2023-04-09T00:01:14.551Z,6.18
2023-04-09T00:03:43.228Z,6.12
2023-04-09T00:06:11.618Z,6.05
2023-04-09T00:08:38.109Z,5.98
2023-04-09T00:11:04.966Z,5.93
2023-04-09T00:13:39.013Z,5.85
2023-04-09T00:16:06.893Z,5.80
2023-04-09T00:18:33.709Z,5.78
2023-04-09T00:21:00.631Z,5.79
2023-04-09T00:23:27.259Z,5.83
2023-04-09T00:25:55.201Z,5.88
2023-04-09T00:28:21.868Z,5.92
2023-04-09T00:30:48.381Z,5.97
2023-04-09T00:33:18.048Z,6.00
2023-04-09T00:35:44.749Z,5.99
2023-04-09T00:38:12.308Z,6.00
2023-04-09T00:40:38.881Z,5.97
2023-04-09T00:43:05.658Z,5.91
2023-04-09T00:45:32.686Z,5.88
2023-04-09T00:47:59.562Z,5.82
2023-04-09T00:50:26.502Z,5.77
2023-04-09T00:52:53.339Z,5.73
2023-04-09T00:55:21.378Z,5.70
2023-04-09T00:57:47.925Z,5.70
2023-04-09T01:00:16.162Z,5.68
2023-04-09T01:02:43.967Z,5.67
2023-04-09T01:05:14.190Z,5.65
2023-04-09T01:08:05.769Z,5.66
2023-04-09T01:10:51.178Z,5.67
2023-04-09T01:13:33.283Z,5.68
2023-04-09T01:16:03.169Z,5.70
2023-04-09T01:18:41.822Z,5.69
2023-04-09T01:21:19.199Z,5.67
2023-04-09T01:24:17.063Z,5.70
2023-04-09T01:26:51.352Z,5.67
2023-04-09T01:29:20.456Z,5.64
2023-04-09T01:31:52.100Z,5.64
2023-04-09T01:34:20.519Z,5.62
2023-04-09T01:36:52.176Z,5.62
2023-04-09T01:39:19.341Z,5.63
2023-04-09T01:41:46.866Z,5.60
2023-04-09T01:44:16.697Z,5.61
2023-04-09T01:46:43.685Z,5.60
2023-04-09T01:49:11.259Z,5.59
2023-04-09T01:51:38.902Z,5.57
2023-04-09T01:54:05.725Z,5.55
2023-04-09T01:56:45.706Z,5.55
2023-04-09T01:59:12.690Z,5.58
2023-04-09T02:01:47.695Z,5.61
2023-04-09T02:04:29.586Z,5.58
2023-04-09T02:07:07.098Z,5.57
2023-04-09T02:09:37.065Z,5.56
2023-04-09T02:12:06.836Z,5.58
2023-04-09T02:14:34.580Z,5.60
2023-04-09T02:17:02.246Z,5.62
2023-04-09T02:19:39.637Z,5.63
2023-04-09T02:22:06.334Z,5.67
2023-04-09T02:24:32.802Z,5.69
2023-04-09T02:26:59.463Z,5.69
2023-04-09T02:29:25.919Z,5.65
2023-04-09T02:31:53.814Z,5.62
2023-04-09T02:34:20.373Z,5.62
2023-04-09T02:36:48.315Z,5.61
2023-04-09T02:39:15.424Z,5.62
2023-04-09T02:41:42.297Z,5.62
2023-04-09T02:44:08.967Z,5.61
2023-04-09T02:46:35.597Z,5.62
2023-04-09T02:49:02.584Z,5.64
2023-04-09T02:51:29.203Z,5.65
2023-04-09T02:53:55.868Z,5.62
2023-04-09T02:56:22.741Z,5.58
2023-04-09T02:58:53.995Z,5.56
2023-04-09T03:01:23.231Z,5.56
2023-04-09T03:03:50.434Z,5.57
2023-04-09T03:06:20.686Z,5.56
2023-04-09T03:08:47.316Z,5.55
2023-04-09T03:11:14.219Z,5.48
2023-04-09T03:13:40.687Z,5.40
2023-04-09T03:16:07.824Z,5.35
2023-04-09T03:18:34.363Z,5.32
2023-04-09T03:21:05.476Z,5.31
2023-04-09T03:23:35.285Z,5.27
2023-04-09T03:26:06.553Z,5.26
2023-04-09T03:28:49.437Z,5.23
2023-04-09T03:31:17.071Z,5.19
2023-04-09T03:33:44.944Z,5.17
2023-04-09T03:36:12.002Z,5.14
2023-04-09T03:38:52.599Z,5.07
2023-04-09T03:41:41.310Z,4.99
2023-04-09T03:44:11.666Z,4.94
2023-04-09T03:46:55.274Z,4.90
2023-04-09T03:49:22.654Z,4.90
2023-04-09T03:51:49.983Z,4.92
2023-04-09T03:54:16.687Z,4.93
2023-04-09T03:56:44.481Z,4.93
2023-04-09T03:59:13.511Z,4.97
2023-04-09T04:01:43.998Z,5.01
2023-04-09T04:04:10.787Z,5.02
2023-04-09T04:06:47.753Z,5.06
2023-04-09T04:09:32.805Z,5.09
2023-04-09T04:12:11.088Z,5.13
2023-04-09T04:14:51.085Z,5.19
2023-04-09T04:17:27.010Z,5.22
2023-04-09T04:19:54.599Z,5.23
2023-04-09T04:22:24.908Z,5.28
2023-04-09T04:24:55.025Z,5.34
2023-04-09T04:27:22.685Z,5.39
2023-04-09T04:29:49.913Z,5.44
2023-04-09T04:32:36.445Z,5.47
2023-04-09T04:35:07.621Z,5.51
2023-04-09T04:37:34.704Z,5.55
2023-04-09T04:40:02.796Z,5.61
2023-04-09T04:42:31.434Z,5.66
2023-04-09T04:45:01.395Z,5.73
2023-04-09T04:47:42.757Z,5.78
2023-04-09T04:50:09.815Z,5.82
2023-04-09T04:52:50.342Z,5.85
2023-04-09T04:55:18.347Z,5.89
2023-04-09T04:57:44.924Z,5.92
2023-04-09T05:00:14.530Z,5.94
2023-04-09T05:02:43.112Z,5.99
2023-04-09T05:05:18.138Z,6.05
2023-04-09T05:07:50.449Z,6.12
2023-04-09T05:10:16.996Z,6.19
2023-04-09T05:12:45.103Z,6.23
2023-04-09T05:15:18.415Z,6.28
2023-04-09T05:17:45.807Z,6.30
2023-04-09T05:20:14.337Z,6.33
2023-04-09T05:22:54.455Z,6.38
2023-04-09T05:25:27.793Z,6.42
2023-04-09T05:27:54.398Z,6.47
2023-04-09T05:30:21.602Z,6.51
2023-04-09T05:32:48.304Z,6.56
2023-04-09T05:35:16.099Z,6.61
2023-04-09T05:37:45.474Z,6.66
2023-04-09T05:40:12.677Z,6.73
2023-04-09T05:42:41.643Z,6.80
2023-04-09T05:45:17.603Z,6.86
2023-04-09T05:47:50.919Z,6.92
2023-04-09T05:50:20.539Z,7.00
2023-04-09T05:52:50.072Z,7.10
2023-04-09T05:55:16.964Z,7.17
2023-04-09T05:57:59.299Z,7.24
2023-04-09T06:00:26.540Z,7.31
2023-04-09T06:02:53.103Z,7.41
2023-04-09T06:05:19.649Z,7.52
2023-04-09T06:07:47.549Z,7.61
2023-04-09T06:10:14.373Z,7.68
2023-04-09T06:12:41.255Z,7.76
2023-04-09T06:15:09.468Z,7.81
2023-04-09T06:17:36.106Z,7.85
2023-04-09T06:20:02.792Z,7.87
2023-04-09T06:22:29.308Z,7.88
2023-04-09T06:24:55.812Z,7.92
2023-04-09T06:27:22.991Z,7.93
2023-04-09T06:29:49.458Z,7.96
2023-04-09T06:32:16.732Z,8.00
2023-04-09T06:34:43.345Z,8.03
2023-04-09T06:37:09.935Z,8.04
2023-04-09T06:39:37.412Z,8.07
2023-04-09T06:42:05.201Z,8.07
2023-04-09T06:44:38.656Z,8.11
2023-04-09T06:47:05.442Z,8.13
2023-04-09T06:49:31.908Z,8.18
2023-04-09T06:51:58.405Z,8.22
2023-04-09T06:54:25.024Z,8.25
2023-04-09T06:56:51.894Z,8.31
2023-04-09T06:59:18.673Z,8.37
2023-04-09T07:01:45.566Z,8.42
2023-04-09T07:04:12.191Z,8.46
2023-04-09T07:06:40.696Z,8.50
2023-04-09T07:09:07.523Z,8.56
2023-04-09T07:11:34.039Z,8.62
2023-04-09T07:14:00.890Z,8.67
2023-04-09T07:16:27.483Z,8.71
2023-04-09T07:18:54.074Z,8.74
2023-04-09T07:21:20.660Z,8.77
2023-04-09T07:23:48.058Z,8.79
2023-04-09T07:26:15.848Z,8.83
2023-04-09T07:28:42.466Z,8.87
2023-04-09T07:31:09.785Z,8.90
2023-04-09T07:33:36.278Z,8.95
2023-04-09T07:36:02.939Z,8.99
2023-04-09T07:38:30.362Z,9.02
2023-04-09T07:40:57.605Z,9.01
2023-04-09T07:43:24.123Z,9.03
2023-04-09T07:45:51.645Z,9.04
2023-04-09T07:48:18.189Z,9.05
2023-04-09T07:50:48.264Z,9.10
2023-04-09T07:53:14.907Z,9.11
2023-04-09T07:55:41.532Z,9.14
2023-04-09T07:58:08.064Z,9.15
2023-04-09T08:00:34.559Z,9.17
2023-04-09T08:03:01.840Z,9.22
2023-04-09T08:05:28.853Z,9.23
2023-04-09T08:07:55.439Z,9.24
2023-04-09T08:10:21.955Z,9.27
2023-04-09T08:12:48.990Z,9.28
2023-04-09T08:15:15.499Z,9.31
2023-04-09T08:17:42.132Z,9.34
2023-04-09T08:20:09.085Z,9.41
2023-04-09T08:22:35.657Z,9.49
2023-04-09T08:25:02.932Z,9.54
2023-04-09T08:27:29.597Z,9.62
2023-04-09T08:29:56.202Z,9.64
2023-04-09T08:32:23.800Z,9.68
2023-04-09T08:34:50.360Z,9.74
2023-04-09T08:37:17.540Z,9.79
2023-04-09T08:39:44.191Z,9.82
2023-04-09T08:42:12.599Z,9.86
2023-04-09T08:44:39.197Z,9.94
2023-04-09T08:47:11.382Z,10.00
2023-04-09T08:49:41.594Z,10.10
2023-04-09T08:52:09.818Z,10.20
2023-04-09T08:54:37.177Z,10.29
2023-04-09T08:57:05.846Z,10.32
2023-04-09T08:59:36.801Z,10.37
2023-04-09T09:02:07.832Z,10.38
2023-04-09T09:04:46.347Z,10.40
2023-04-09T09:07:13.409Z,10.45
2023-04-09T09:10:00.237Z,10.46
2023-04-09T09:12:40.470Z,10.46
2023-04-09T09:15:28.178Z,10.44
2023-04-09T09:17:59.605Z,10.44
2023-04-09T09:20:27.145Z,10.49
2023-04-09T09:22:55.902Z,10.55
2023-04-09T09:25:26.700Z,10.61
2023-04-09T09:27:54.564Z,10.67
2023-04-09T09:30:26.603Z,10.70
2023-04-09T09:33:05.623Z,10.79
2023-04-09T09:35:48.316Z,10.98
2023-04-09T09:38:16.244Z,11.18
2023-04-09T09:40:43.692Z,11.33
2023-04-09T09:43:10.979Z,11.40
2023-04-09T09:45:38.890Z,11.52
2023-04-09T09:48:08.327Z,11.75
2023-04-09T09:50:36.727Z,11.91
2023-04-09T09:53:07.633Z,12.08
2023-04-09T09:55:38.982Z,12.34
2023-04-09T09:58:17.295Z,12.49
2023-04-09T10:00:46.523Z,12.64
2023-04-09T10:03:25.231Z,12.82
2023-04-09T10:05:53.531Z,13.05
2023-04-09T10:08:21.730Z,12.98
2023-04-09T10:10:49.025Z,12.90
2023-04-09T10:13:27.126Z,12.91
2023-04-09T10:15:53.990Z,13.06
2023-04-09T10:18:21.329Z,13.08
2023-04-09T10:21:00.283Z,13.09
2023-04-09T10:23:41.560Z,13.11
2023-04-09T10:26:08.580Z,12.95
2023-04-09T10:28:37.509Z,12.73
2023-04-09T10:31:08.616Z,12.48
2023-04-09T10:33:37.344Z,12.43
2023-04-09T10:36:06.383Z,12.40
2023-04-09T10:38:38.364Z,12.49
2023-04-09T10:41:27.602Z,12.44
2023-04-09T10:43:57.056Z,12.36
2023-04-09T10:46:36.892Z,12.22
2023-04-09T10:49:10.452Z,12.17
2023-04-09T10:51:40.601Z,12.20
2023-04-09T10:54:32.753Z,12.27
2023-04-09T10:57:08.184Z,12.35
2023-04-09T10:59:41.196Z,12.54
2023-04-09T11:02:10.381Z,12.72
2023-04-09T11:04:46.562Z,12.84
2023-04-09T11:07:17.798Z,13.00
2023-04-09T11:09:44.362Z,13.14
2023-04-09T11:12:14.017Z,13.29
2023-04-09T11:14:40.568Z,13.46
2023-04-09T11:17:07.169Z,13.65
2023-04-09T11:19:34.330Z,13.74
2023-04-09T11:22:01.016Z,13.87
2023-04-09T11:24:39.638Z,14.03
2023-04-09T11:27:06.109Z,14.22
2023-04-09T11:29:35.065Z,14.31
2023-04-09T11:32:02.488Z,14.51
2023-04-09T11:34:29.081Z,14.68
2023-04-09T11:36:56.887Z,14.82
2023-04-09T11:39:23.460Z,14.94
2023-04-09T11:41:50.101Z,15.01
2023-04-09T11:44:16.625Z,15.09
2023-04-09T11:46:43.634Z,15.11
2023-04-09T11:49:10.311Z,15.10
2023-04-09T11:51:36.901Z,14.93
2023-04-09T11:54:04.873Z,14.77
2023-04-09T11:56:32.470Z,14.46
2023-04-09T11:58:59.500Z,14.31
2023-04-09T12:01:32.422Z,14.20
2023-04-09T12:04:00.235Z,14.27
2023-04-09T12:06:30.040Z,14.47
2023-04-09T12:08:58.064Z,14.58
2023-04-09T12:11:29.966Z,14.65
2023-04-09T12:14:01.246Z,14.62
2023-04-09T12:16:32.089Z,14.62
2023-04-09T12:19:09.145Z,14.64
2023-04-09T12:22:05.261Z,14.63
2023-04-09T12:24:32.011Z,14.57
2023-04-09T12:26:58.706Z,14.51
2023-04-09T12:29:26.704Z,14.47
2023-04-09T12:31:54.036Z,14.49
2023-04-09T12:34:20.720Z,14.57
2023-04-09T12:36:47.297Z,14.65
2023-04-09T12:39:14.724Z,14.84
2023-04-09T12:41:43.218Z,14.90
2023-04-09T12:44:09.961Z,14.86
2023-04-09T12:46:37.531Z,14.70
2023-04-09T12:49:04.272Z,14.64
2023-04-09T12:51:30.832Z,14.71
2023-04-09T12:53:57.370Z,14.68
2023-04-09T12:56:24.791Z,14.82
2023-04-09T12:58:52.059Z,14.99
2023-04-09T13:01:18.898Z,15.08
2023-04-09T13:03:45.708Z,15.20
2023-04-09T13:06:12.311Z,15.18
2023-04-09T13:08:38.840Z,15.18
2023-04-09T13:11:05.889Z,15.26
2023-04-09T13:13:32.399Z,15.30
2023-04-09T13:15:59.019Z,15.25
2023-04-09T13:18:25.630Z,15.23
2023-04-09T13:20:52.133Z,15.32
2023-04-09T13:23:18.605Z,15.41
2023-04-09T13:25:45.437Z,15.36
2023-04-09T13:28:14.249Z,15.21
2023-04-09T13:30:40.773Z,15.03
2023-04-09T13:33:07.325Z,14.95
2023-04-09T13:35:34.774Z,14.97
2023-04-09T13:38:01.328Z,14.99
2023-04-09T13:40:27.912Z,15.05
2023-04-09T13:42:54.392Z,15.08
2023-04-09T13:45:23.700Z,15.05
2023-04-09T13:47:50.215Z,15.06
2023-04-09T13:50:17.092Z,15.08
2023-04-09T13:52:43.509Z,15.12
2023-04-09T13:55:10.408Z,15.21
2023-04-09T13:57:37.270Z,15.43
2023-04-09T14:00:04.634Z,15.55
2023-04-09T14:02:32.097Z,15.69
2023-04-09T14:04:59.111Z,15.78
2023-04-09T14:07:26.308Z,15.96
2023-04-09T14:09:52.812Z,16.00
2023-04-09T14:12:19.282Z,16.02
2023-04-09T14:14:45.778Z,16.04
2023-04-09T14:17:12.464Z,16.00
2023-04-09T14:19:39.734Z,15.96
2023-04-09T14:22:07.723Z,15.97
2023-04-09T14:24:40.296Z,15.93
2023-04-09T14:27:10.340Z,15.93
2023-04-09T14:29:36.839Z,15.96
2023-04-09T14:32:03.633Z,16.01
2023-04-09T14:34:31.416Z,16.10
2023-04-09T14:36:58.032Z,16.16
2023-04-09T14:39:24.633Z,16.13
2023-04-09T14:41:51.780Z,15.88
2023-04-09T14:44:18.274Z,15.88
2023-04-09T14:46:45.502Z,15.94
2023-04-09T14:49:13.563Z,15.95
2023-04-09T14:51:40.129Z,15.98
2023-04-09T14:54:06.740Z,15.97
2023-04-09T14:56:35.390Z,15.98
2023-04-09T14:59:01.881Z,15.99
2023-04-09T15:01:28.469Z,15.97
2023-04-09T15:03:55.648Z,15.87
2023-04-09T15:06:22.552Z,15.89
2023-04-09T15:08:49.008Z,15.85
2023-04-09T15:11:16.615Z,15.80
2023-04-09T15:13:43.589Z,15.76
2023-04-09T15:16:10.507Z,15.77
2023-04-09T15:18:40.143Z,15.79
2023-04-09T15:21:07.314Z,15.76
2023-04-09T15:23:35.457Z,15.75
2023-04-09T15:26:02.208Z,15.76
2023-04-09T15:28:30.303Z,15.77
2023-04-09T15:30:57.954Z,15.78
2023-04-09T15:33:24.537Z,15.80
2023-04-09T15:35:51.166Z,15.83
2023-04-09T15:38:17.801Z,15.88
2023-04-09T15:40:46.138Z,15.94
2023-04-09T15:43:13.974Z,16.00
2023-04-09T15:45:41.427Z,16.05
2023-04-09T15:48:09.470Z,16.12
2023-04-09T15:50:36.198Z,16.18
2023-04-09T15:53:02.946Z,16.25
2023-04-09T15:55:29.547Z,16.39
2023-04-09T15:57:56.036Z,16.58
2023-04-09T16:00:26.233Z,17.17
2023-04-09T16:02:53.686Z,18.09
2023-04-09T16:05:20.482Z,18.95
2023-04-09T16:07:51.021Z,19.70
2023-04-09T16:10:18.840Z,20.34
2023-04-09T16:12:45.488Z,20.73
2023-04-09T16:15:12.071Z,21.25
2023-04-09T16:17:40.873Z,21.67
2023-04-09T16:20:08.513Z,22.14
2023-04-09T16:22:35.460Z,22.53
2023-04-09T16:25:02.033Z,22.96
2023-04-09T16:27:28.997Z,23.45
2023-04-09T16:29:56.076Z,23.93
2023-04-09T16:32:22.886Z,24.40
2023-04-09T16:34:49.431Z,24.83
2023-04-09T16:37:16.093Z,25.06
2023-04-09T16:39:42.636Z,25.25
2023-04-09T16:42:11.011Z,25.46
2023-04-09T16:44:38.055Z,25.58
2023-04-09T16:47:05.637Z,25.63
2023-04-09T16:49:32.185Z,25.63
2023-04-09T16:51:58.787Z,25.58
2023-04-09T16:54:25.885Z,25.51
2023-04-09T16:56:53.063Z,25.31
2023-04-09T16:59:21.031Z,24.71
2023-04-09T17:01:51.361Z,23.79
2023-04-09T17:04:18.028Z,23.03
2023-04-09T17:06:44.798Z,22.37
2023-04-09T17:09:11.655Z,21.80
2023-04-09T17:11:38.305Z,21.21
2023-04-09T17:14:05.751Z,20.66
2023-04-09T17:16:33.178Z,20.16
2023-04-09T17:18:59.807Z,19.68
2023-04-09T17:21:26.534Z,19.21
2023-04-09T17:23:53.077Z,18.78
2023-04-09T17:26:20.716Z,18.41
2023-04-09T17:28:47.630Z,18.07
2023-04-09T17:31:15.951Z,17.74
2023-04-09T17:33:47.002Z,17.42
2023-04-09T17:36:14.148Z,17.15
2023-04-09T17:38:40.617Z,16.92
2023-04-09T17:41:07.901Z,16.67
2023-04-09T17:43:34.557Z,16.43
2023-04-09T17:46:01.567Z,16.22
2023-04-09T17:48:30.063Z,15.98
2023-04-09T17:50:58.057Z,15.76
2023-04-09T17:53:25.038Z,15.56
2023-04-09T17:55:52.054Z,15.36
2023-04-09T17:58:19.141Z,15.17
2023-04-09T18:00:45.680Z,14.99
2023-04-09T18:03:12.853Z,14.82
2023-04-09T18:05:39.809Z,14.66
2023-04-09T18:08:07.336Z,14.49
2023-04-09T18:10:34.307Z,14.31
2023-04-09T18:13:00.797Z,14.14
2023-04-09T18:15:28.232Z,13.96
2023-04-09T18:17:54.927Z,13.84
2023-04-09T18:20:21.458Z,13.71
2023-04-09T18:22:48.124Z,13.60
2023-04-09T18:25:14.639Z,13.46
2023-04-09T18:27:41.156Z,13.30
2023-04-09T18:30:08.186Z,13.17
2023-04-09T18:32:34.842Z,13.04
2023-04-09T18:35:01.639Z,12.91
2023-04-09T18:37:28.313Z,12.79
2023-04-09T18:39:55.111Z,12.68
2023-04-09T18:42:21.798Z,12.57
2023-04-09T18:44:48.723Z,12.43
2023-04-09T18:47:15.323Z,12.30
2023-04-09T18:49:42.363Z,12.17
2023-04-09T18:52:10.342Z,12.06
2023-04-09T18:54:37.318Z,11.98
2023-04-09T18:57:04.403Z,11.89
2023-04-09T18:59:33.403Z,11.78
2023-04-09T19:02:00.563Z,11.68
2023-04-09T19:04:28.152Z,11.59
2023-04-09T19:06:54.774Z,11.49
2023-04-09T19:09:21.626Z,11.43
2023-04-09T19:11:48.663Z,11.34
2023-04-09T19:14:15.931Z,11.27
2023-04-09T19:16:44.428Z,11.20
2023-04-09T19:19:11.855Z,11.11
2023-04-09T19:21:38.396Z,11.02
2023-04-09T19:24:06.220Z,10.95
2023-04-09T19:26:33.232Z,10.89
2023-04-09T19:28:59.970Z,10.81
2023-04-09T19:31:26.576Z,10.75
2023-04-09T19:33:53.245Z,10.68
2023-04-09T19:36:19.785Z,10.63
2023-04-09T19:38:46.501Z,10.56
2023-04-09T19:41:13.052Z,10.49
2023-04-09T19:43:41.866Z,10.41
2023-04-09T19:46:08.774Z,10.35
2023-04-09T19:48:36.813Z,10.31
2023-04-09T19:51:03.702Z,10.26
2023-04-09T19:53:31.035Z,10.20
2023-04-09T19:55:57.694Z,10.15
2023-04-09T19:58:24.371Z,10.11
2023-04-09T20:00:51.434Z,10.05
2023-04-09T20:03:18.729Z,9.98
2023-04-09T20:05:45.328Z,9.87
2023-04-09T20:08:15.144Z,9.78
2023-04-09T20:10:45.037Z,9.70
2023-04-09T20:13:11.944Z,9.59
2023-04-09T20:15:38.788Z,9.51
2023-04-09T20:18:06.267Z,9.44
2023-04-09T20:20:32.956Z,9.37
2023-04-09T20:22:59.787Z,9.31
2023-04-09T20:25:33.790Z,9.26
2023-04-09T20:28:01.857Z,9.20
2023-04-09T20:30:28.399Z,9.17
2023-04-09T20:32:54.983Z,9.12
2023-04-09T20:35:21.616Z,9.08
2023-04-09T20:37:50.143Z,9.03
2023-04-09T20:40:17.365Z,8.99
2023-04-09T20:42:44.989Z,8.95
2023-04-09T20:45:11.622Z,8.91
2023-04-09T20:47:38.280Z,8.88
2023-04-09T20:50:05.365Z,8.83
2023-04-09T20:52:32.738Z,8.81
2023-04-09T20:54:59.252Z,8.78
2023-04-09T20:57:25.972Z,8.74
2023-04-09T20:59:56.014Z,8.70
2023-04-09T21:02:23.900Z,8.66
2023-04-09T21:04:50.514Z,8.62
2023-04-09T21:07:17.948Z,8.57
2023-04-09T21:09:44.532Z,8.53
2023-04-09T21:12:12.332Z,8.49
2023-04-09T21:14:39.267Z,8.45
2023-04-09T21:17:05.996Z,8.42
2023-04-09T21:19:33.125Z,8.35
2023-04-09T21:22:00.149Z,8.32
2023-04-09T21:24:27.907Z,8.26
2023-04-09T21:26:54.488Z,8.21
2023-04-09T21:29:21.412Z,8.17
2023-04-09T21:31:48.871Z,8.14
2023-04-09T21:34:16.920Z,8.11
2023-04-09T21:36:45.263Z,8.06
2023-04-09T21:39:12.527Z,8.02
2023-04-09T21:41:40.131Z,7.98
2023-04-09T21:44:09.638Z,7.98
2023-04-09T21:46:37.342Z,7.93
2023-04-09T21:49:05.489Z,7.89
2023-04-09T21:51:32.787Z,7.86
2023-04-09T21:54:06.988Z,7.81
2023-04-09T21:56:34.478Z,7.77
2023-04-09T21:59:02.622Z,7.74
2023-04-09T22:01:34.543Z,7.69
2023-04-09T22:04:02.119Z,7.65
2023-04-09T22:06:29.292Z,7.62
2023-04-09T22:08:57.749Z,7.59
2023-04-09T22:11:29.868Z,7.56
2023-04-09T22:13:58.532Z,7.55
2023-04-09T22:16:25.982Z,7.54
2023-04-09T22:18:58.015Z,7.53
2023-04-09T22:21:24.943Z,7.50
2023-04-09T22:23:51.407Z,7.48
2023-04-09T22:26:17.942Z,7.46
2023-04-09T22:28:44.516Z,7.46
2023-04-09T22:31:11.332Z,7.43
2023-04-09T22:33:38.073Z,7.43
2023-04-09T22:36:07.866Z,7.40
2023-04-09T22:38:34.858Z,7.38
2023-04-09T22:41:01.587Z,7.38
2023-04-09T22:43:28.095Z,7.35
2023-04-09T22:45:58.436Z,7.33
2023-04-09T22:48:24.952Z,7.33
2023-04-09T22:50:51.446Z,7.30
2023-04-09T22:53:19.253Z,7.29
2023-04-09T22:55:50.655Z,7.27
2023-04-09T22:58:17.621Z,7.28
2023-04-09T23:00:45.026Z,7.29
2023-04-09T23:03:12.012Z,7.27
2023-04-09T23:05:39.377Z,7.26
2023-04-09T23:08:06.996Z,7.25
2023-04-09T23:10:33.626Z,7.23
2023-04-09T23:13:02.908Z,7.20
2023-04-09T23:15:29.499Z,7.19
2023-04-09T23:17:56.237Z,7.18
2023-04-09T23:20:23.191Z,7.17
2023-04-09T23:22:52.306Z,7.15
2023-04-09T23:25:22.628Z,7.13
2023-04-09T23:27:49.176Z,7.11
2023-04-09T23:30:18.627Z,7.09
2023-04-09T23:32:45.723Z,7.07
2023-04-09T23:35:13.212Z,7.06
2023-04-09T23:37:41.252Z,7.03
2023-04-09T23:40:08.619Z,7.01
2023-04-09T23:42:35.602Z,6.98
2023-04-09T23:45:04.472Z,6.98
2023-04-09T23:47:35.635Z,6.95
2023-04-09T23:50:07.185Z,6.92
2023-04-09T23:52:36.401Z,6.91
2023-04-09T23:55:08.889Z,6.88
2023-04-09T23:57:40.028Z,6.85
